Time;durP1;ratioP1;P1;durP2;ratioP2;P2;SDS_P1;SDS_P2;PMS_P1;PMS_P2;Temp;Humidity;BMP_temperature;BMP_pressure;BME280_temperature;BME280_humidity;BME280_pressure;Samples;Min_cycle;Max_cycle;Signal;HPM_P1;HPM_P2
2021/12/22 00:01:59;;;;;;;3.45;1.20;;;;;;;-1.93;62.18;101405.77;1906697;75;21519;-60
2021/12/22 00:04:30;;;;;;;2.95;0.95;;;;;;;-1.97;62.12;101421.59;1940074;74;21023;-61
2021/12/22 00:06:58;;;;;;;1.82;1.10;;;;;;;-1.98;62.01;101422.42;1920425;74;21022;-61
2021/12/22 00:09:27;;;;;;;2.10;1.00;;;;;;;-2.04;62.00;101424.44;1915554;75;21125;-61
2021/12/22 00:11:56;;;;;;;2.60;1.27;;;;;;;-2.10;62.01;101437.20;1915664;75;21297;-60
2021/12/22 00:14:24;;;;;;;1.70;1.00;;;;;;;-2.12;62.00;101446.63;1914904;74;21035;-61
2021/12/22 00:16:53;;;;;;;1.65;0.78;;;;;;;-2.26;61.78;101433.80;1908925;74;21074;-59
2021/12/22 00:19:22;;;;;;;2.02;1.00;;;;;;;-2.26;61.78;101433.80;1910108;75;21113;-59
2021/12/22 00:21:51;;;;;;;3.00;1.07;;;;;;;-2.24;61.76;101448.47;1911313;75;20979;-60
2021/12/22 00:24:20;;;;;;;10.13;1.85;;;;;;;-2.28;61.71;101447.08;1912017;75;21011;-61
2021/12/22 00:26:48;;;;;;;0.75;0.75;;;;;;;-2.29;61.32;101454.34;1912015;74;21064;-61
2021/12/22 00:29:17;;;;;;;1.15;0.85;;;;;;;-2.33;61.23;101464.58;1914639;74;21035;-61
2021/12/22 00:31:58;;;;;;;2.20;1.22;;;;;;;-2.34;60.35;101462.85;1910557;74;21625;-59
2021/12/22 00:34:17;;;;;;;1.75;0.80;;;;;;;-2.42;60.94;101465.63;1910736;74;21060;-59
2021/12/22 00:36:46;;;;;;;1.25;0.80;;;;;;;-2.50;60.98;101472.31;1909654;74;21886;-59
2021/12/22 00:39:15;;;;;;;3.25;1.40;;;;;;;-2.47;60.58;101488.27;1912235;75;21495;-59
2021/12/22 00:41:43;;;;;;;1.35;0.80;;;;;;;-2.53;60.72;101484.72;1912394;74;21057;-60
2021/12/22 00:44:12;;;;;;;1.70;0.95;;;;;;;-2.63;60.59;101485.72;1912670;74;21040;-60
2021/12/22 00:46:41;;;;;;;2.85;0.88;;;;;;;-2.65;59.96;101470.63;1893501;75;21024;-60
2021/12/22 00:49:10;;;;;;;1.45;0.80;;;;;;;-2.65;59.96;101470.63;1904726;74;21124;-61
2021/12/22 00:51:39;;;;;;;1.77;0.88;;;;;;;-2.65;60.02;101478.36;1906494;75;21041;-61
2021/12/22 00:54:08;;;;;;;1.35;0.80;;;;;;;-2.70;59.65;101486.38;1866206;76;21042;-60
2021/12/22 00:56:38;;;;;;;1.90;1.05;;;;;;;-2.70;59.72;101495.41;1904755;75;21078;-61
2021/12/22 00:59:06;;;;;;;1.72;1.00;;;;;;;-2.76;58.85;101484.09;1910142;75;21075;-58
2021/12/22 01:01:35;;;;;;;11.80;1.20;;;;;;;-2.77;58.44;101495.64;1877211;75;21169;-60
2021/12/22 01:04:05;;;;;;;2.17;1.00;;;;;;;-2.82;58.76;101494.64;1853629;77;21146;-60
2021/12/22 01:06:35;;;;;;;0.90;0.80;;;;;;;-2.85;58.79;101490.28;1863039;77;21039;-60
2021/12/22 01:09:05;;;;;;;1.50;0.90;;;;;;;-2.89;58.82;101493.61;1865545;77;21109;-62
2021/12/22 01:11:34;;;;;;;3.85;0.93;;;;;;;-2.94;58.79;101492.60;1866036;77;21027;-61
2021/12/22 01:14:03;;;;;;;1.32;0.82;;;;;;;-3.01;58.63;101501.84;1865941;77;21039;-60
2021/12/22 01:16:33;;;;;;;1.25;0.80;;;;;;;-3.02;58.75;101495.39;1865891;77;21071;-60
2021/12/22 01:19:05;;;;;;;1.47;0.93;;;;;;;-3.03;58.72;101500.07;1865937;77;21555;-59
2021/12/22 01:21:41;;;;;;;2.72;1.10;;;;;;;-3.04;58.48;101500.89;1865833;77;21043;-60
2021/12/22 01:26:52;;;;;;;0.85;0.82;;;;;;;-3.12;58.33;101501.56;1833468;78;21031;-60
2021/12/22 01:29:17;;;;;;;0.98;0.80;;;;;;;-3.16;58.15;101500.98;1833160;78;21181;-58
2021/12/22 01:31:46;;;;;;;1.27;0.68;;;;;;;-3.19;58.29;101502.21;1833464;78;21023;-59
2021/12/22 01:34:15;;;;;;;1.82;0.90;;;;;;;-3.22;57.72;101507.27;1833344;78;21118;-59
2021/12/22 01:36:46;;;;;;;1.45;0.68;;;;;;;-3.29;57.92;101513.05;1833399;78;21020;-59
2021/12/22 01:39:14;;;;;;;0.68;0.62;;;;;;;-3.28;58.06;101526.80;1833245;78;21564;-59
2021/12/22 01:41:43;;;;;;;1.47;1.00;;;;;;;-3.32;57.73;101520.68;1833532;78;21094;-59
2021/12/22 01:44:23;;;;;;;1.00;0.78;;;;;;;-3.32;57.96;101530.98;1833614;78;21494;-59
2021/12/22 01:49:43;;;;;;;1.57;0.90;;;;;;;-3.37;57.37;101556.61;1833432;78;21019;-59
2021/12/22 01:52:12;;;;;;;2.37;1.00;;;;;;;-3.39;57.71;101552.25;1833474;78;21568;-58
2021/12/22 01:55:05;;;;;;;2.42;1.02;;;;;;;-3.40;57.70;101551.77;1833642;78;21169;-58
2021/12/22 01:57:30;;;;;;;1.60;0.80;;;;;;;-3.41;57.63;101548.73;1832857;78;21051;-58
2021/12/22 02:00:03;;;;;;;1.45;1.10;;;;;;;-3.38;56.69;101555.27;1833513;78;21051;-58
2021/12/22 02:02:30;;;;;;;2.00;0.80;;;;;;;-3.42;56.92;101558.58;1863449;76;21174;-59
2021/12/22 02:04:59;;;;;;;1.02;0.60;;;;;;;-3.40;57.03;101567.23;1877271;76;21549;-59
2021/12/22 02:07:27;;;;;;;1.02;0.78;;;;;;;-3.37;57.27;101568.63;1877266;76;21088;-59
2021/12/22 02:10:04;;;;;;;1.60;0.90;;;;;;;-3.32;57.33;101565.75;1877260;76;21126;-59
2021/12/22 02:12:38;;;;;;;1.65;0.82;;;;;;;-3.23;57.44;101578.91;1877296;76;21069;-58
2021/12/22 02:15:05;;;;;;;1.60;0.93;;;;;;;-3.13;57.46;101575.80;1893510;75;21113;-57
2021/12/22 02:17:35;;;;;;;3.25;1.20;;;;;;;-3.03;57.33;101574.79;1911584;75;21037;-58
2021/12/22 02:20:06;;;;;;;1.05;0.82;;;;;;;-2.90;57.31;101576.89;1911393;75;21036;-58
2021/12/22 02:22:36;;;;;;;1.92;0.90;;;;;;;-2.90;57.31;101576.89;1911487;75;21115;-58
2021/12/22 02:25:12;;;;;;;3.00;1.20;;;;;;;-2.84;57.12;101586.12;1911563;75;21032;-60
2021/12/22 02:27:42;;;;;;;1.10;0.70;;;;;;;-2.75;57.19;101587.67;1910593;75;21069;-58
2021/12/22 02:30:14;;;;;;;2.20;1.00;;;;;;;-2.70;57.10;101584.34;1910707;75;21036;-58
2021/12/22 02:35:42;;;;;;;1.25;0.93;;;;;;;-2.63;56.95;101582.41;1911568;75;21036;-59
2021/12/22 02:38:18;;;;;;;1.52;1.10;;;;;;;-2.59;57.08;101590.69;1911557;75;21040;-60
2021/12/22 02:40:49;;;;;;;1.57;0.72;;;;;;;-2.57;57.04;101590.31;1911538;75;21114;-60
2021/12/22 02:43:24;;;;;;;2.55;1.30;;;;;;;-2.54;56.92;101586.54;1911521;75;21032;-59
2021/12/22 02:45:53;;;;;;;1.37;0.80;;;;;;;-2.55;56.86;101586.06;1911620;75;21060;-58
2021/12/22 02:48:23;;;;;;;1.30;1.00;;;;;;;-2.57;56.84;101594.45;1911515;75;21114;-58
2021/12/22 02:50:55;;;;;;;31.57;1.40;;;;;;;-2.59;56.86;101602.28;1911448;75;21122;-58
2021/12/22 02:53:27;;;;;;;2.20;0.95;;;;;;;-2.59;56.86;101602.28;1911493;75;21016;-59
2021/12/22 02:56:12;;;;;;;2.87;1.05;;;;;;;-2.54;56.40;101607.17;1911003;75;21118;-58
2021/12/22 02:58:43;;;;;;;0.72;0.68;;;;;;;-2.55;56.82;101606.27;1910024;75;21507;-59
2021/12/22 03:01:22;;;;;;;3.27;1.10;;;;;;;-2.56;56.89;101590.78;1910696;75;21044;-57
2021/12/22 03:03:54;;;;;;;4.05;1.00;;;;;;;-2.50;56.58;101614.58;1908945;75;21186;-58
2021/12/22 03:06:20;;;;;;;2.22;1.20;;;;;;;-2.51;56.59;101607.23;1909486;75;21036;-60
2021/12/22 03:08:44;;;;;;;1.57;1.02;;;;;;;-2.53;56.74;101610.19;1910774;75;21045;-60
2021/12/22 03:11:12;;;;;;;2.35;1.30;;;;;;;-2.56;56.79;101610.13;1911570;75;21044;-60
2021/12/22 03:13:41;;;;;;;2.10;1.00;;;;;;;-2.56;56.79;101619.14;1911489;75;21126;-60
2021/12/22 03:16:10;;;;;;;2.30;1.22;;;;;;;-2.58;56.97;101616.52;1911622;75;21164;-59
2021/12/22 03:18:39;;;;;;;1.85;1.27;;;;;;;-2.56;57.07;101631.61;1911428;75;21124;-60
2021/12/22 03:21:16;;;;;;;2.08;1.25;;;;;;;-2.55;57.15;101623.03;1911587;75;21319;-60
2021/12/22 03:23:38;;;;;;;3.08;1.32;;;;;;;-2.65;57.43;101624.03;1910398;75;21056;-58
2021/12/22 03:26:07;;;;;;;0.82;0.72;;;;;;;-2.60;57.48;101640.48;1911455;75;21103;-58
2021/12/22 03:28:36;;;;;;;2.58;1.62;;;;;;;-2.64;57.79;101630.92;1911489;75;21017;-58
2021/12/22 03:31:04;;;;;;;5.12;1.40;;;;;;;-2.64;57.79;101630.92;1911349;75;21052;-59
2021/12/22 03:33:33;;;;;;;2.05;1.12;;;;;;;-2.61;57.71;101653.81;1911437;75;21138;-58
2021/12/22 03:36:02;;;;;;;3.05;1.62;;;;;;;-2.62;57.78;101657.23;1911516;75;21138;-58
2021/12/22 03:38:32;;;;;;;1.98;1.37;;;;;;;-2.69;58.56;101684.05;1911428;75;21069;-58
2021/12/22 03:41:01;;;;;;;1.70;1.35;;;;;;;-2.77;59.29;101682.11;1911550;75;21021;-58
2021/12/22 03:43:30;;;;;;;3.20;1.30;;;;;;;-2.77;59.29;101682.11;1911314;75;21114;-59
2021/12/22 03:45:59;;;;;;;2.55;1.27;;;;;;;-2.83;59.67;101687.08;1911675;75;21463;-58
2021/12/22 03:48:28;;;;;;;5.35;0.88;;;;;;;-2.90;59.85;101691.58;1911450;75;21365;-58
2021/12/22 03:50:57;;;;;;;2.55;0.85;;;;;;;-2.92;60.17;101704.42;1911464;75;21495;-59
2021/12/22 03:53:26;;;;;;;4.72;1.57;;;;;;;-2.97;60.76;101719.27;1911446;75;21129;-58
2021/12/22 03:55:55;;;;;;;2.92;1.45;;;;;;;-3.21;61.48;101724.51;1911382;75;21072;-58
2021/12/22 03:58:25;;;;;;;3.45;1.50;;;;;;;-3.21;61.48;101724.51;1911662;75;21123;-58
2021/12/22 04:00:56;;;;;;;2.62;1.30;;;;;;;-3.26;61.60;101735.06;1911591;75;21017;-59
2021/12/22 04:03:28;;;;;;;8.75;1.20;;;;;;;-3.33;61.42;101731.42;1899674;75;21085;-58
2021/12/22 04:05:55;;;;;;;7.70;1.32;;;;;;;-3.47;61.59;101740.38;1887879;76;21045;-58
2021/12/22 04:08:24;;;;;;;3.35;1.45;;;;;;;-3.58;61.50;101749.91;1887913;75;21480;-59
2021/12/22 04:10:53;;;;;;;2.45;1.52;;;;;;;-3.66;61.70;101750.03;1888032;76;21464;-58
2021/12/22 04:13:22;;;;;;;3.00;1.80;;;;;;;-3.79;61.55;101751.30;1888093;75;21467;-58
2021/12/22 04:15:51;;;;;;;5.75;2.12;;;;;;;-3.88;61.45;101771.12;1888093;76;21440;-59
2021/12/22 04:18:21;;;;;;;2.30;1.20;;;;;;;-3.92;61.50;101779.56;1887959;76;21484;-58
2021/12/22 04:20:49;;;;;;;2.17;1.15;;;;;;;-3.98;61.43;101779.77;1888066;76;21530;-58
2021/12/22 04:23:18;;;;;;;2.77;1.30;;;;;;;-4.02;61.35;101792.92;1887889;76;21632;-58
2021/12/22 04:25:47;;;;;;;2.80;1.85;;;;;;;-4.09;61.10;101797.38;1887969;76;21042;-59
2021/12/22 04:28:16;;;;;;;1.92;1.15;;;;;;;-4.15;60.97;101802.27;1887966;76;21421;-58
2021/12/22 04:30:48;;;;;;;3.33;1.52;;;;;;;-4.21;60.68;101806.77;1887971;75;21570;-58
2021/12/22 04:33:21;;;;;;;2.55;1.37;;;;;;;-4.25;60.19;101818.17;1888046;76;21520;-59
2021/12/22 04:35:52;;;;;;;4.75;1.75;;;;;;;-4.37;60.23;101824.98;1888025;76;21057;-59
2021/12/22 04:38:21;;;;;;;2.90;1.12;;;;;;;-4.43;60.20;101842.75;1888029;75;21045;-59
2021/12/22 04:40:51;;;;;;;2.25;1.35;;;;;;;-4.50;60.24;101833.91;1888018;76;21021;-58
2021/12/22 04:43:19;;;;;;;2.27;1.17;;;;;;;-4.59;60.37;101848.95;1888051;75;21085;-58
2021/12/22 04:45:48;;;;;;;3.17;1.70;;;;;;;-4.68;60.39;101837.50;1887946;76;21041;-61
2021/12/22 04:48:17;;;;;;;2.70;1.42;;;;;;;-4.76;60.43;101845.70;1887844;76;21045;-61
2021/12/22 04:50:46;;;;;;;2.75;1.50;;;;;;;-4.85;60.40;101857.75;1887984;76;21440;-59
2021/12/22 04:53:25;;;;;;;2.85;1.60;;;;;;;-4.97;60.46;101867.53;1887961;76;21037;-60
2021/12/22 04:55:48;;;;;;;2.98;1.60;;;;;;;-5.08;60.46;101879.50;1887297;76;21111;-57
2021/12/22 04:58:18;;;;;;;2.10;1.57;;;;;;;-5.14;60.55;101890.80;1888050;76;21476;-59
2021/12/22 05:00:46;;;;;;;2.58;1.25;;;;;;;-5.14;60.61;101900.20;1887866;76;21507;-59
2021/12/22 05:03:17;;;;;;;3.15;1.55;;;;;;;-5.20;60.76;101902.10;1891572;75;21045;-59
2021/12/22 05:05:46;;;;;;;3.35;1.50;;;;;;;-5.22;60.81;101904.97;1917946;75;21036;-59
2021/12/22 05:08:16;;;;;;;2.42;1.70;;;;;;;-5.25;60.84;101914.72;1917859;74;21044;-59
2021/12/22 05:10:45;;;;;;;4.62;2.12;;;;;;;-5.25;60.83;101919.86;1917902;75;21494;-59
2021/12/22 05:13:13;;;;;;;8.03;1.87;;;;;;;-5.25;60.75;101918.98;1917874;74;21467;-59
2021/12/22 05:15:42;;;;;;;1.80;1.57;;;;;;;-5.29;60.69;101927.37;1917872;75;21432;-59
2021/12/22 05:18:22;;;;;;;3.52;1.65;;;;;;;-5.31;60.60;101929.86;1917862;75;21040;-60
2021/12/22 05:20:44;;;;;;;7.80;1.70;;;;;;;-5.33;60.57;101930.20;1925462;73;21105;-58
2021/12/22 05:23:13;;;;;;;3.72;2.20;;;;;;;-5.36;60.51;101935.60;1917855;74;21027;-58
2021/12/22 05:25:42;;;;;;;0.90;0.90;;;;;;;-5.41;60.55;101944.78;1926633;73;21097;-61
2021/12/22 05:28:11;;;;;;;4.83;1.82;;;;;;;-5.43;60.46;101948.55;1918135;73;21035;-60
2021/12/22 05:30:39;;;;;;;1.42;1.07;;;;;;;-5.19;60.39;101952.63;1910522;75;21105;-61
2021/12/22 05:33:08;;;;;;;3.02;1.40;;;;;;;-4.64;59.87;101955.86;1910611;75;21000;-59
2021/12/22 05:35:37;;;;;;;2.85;1.20;;;;;;;-3.99;59.05;101951.25;1910691;75;21047;-58
2021/12/22 05:38:05;;;;;;;4.05;1.42;;;;;;;-3.34;58.18;101954.63;1918102;74;21145;-60
2021/12/22 05:40:34;;;;;;;5.95;1.47;;;;;;;-2.69;57.38;101953.47;1908914;74;21059;-61
2021/12/22 05:43:03;;;;;;;5.67;1.40;;;;;;;-2.21;56.31;101960.72;1931247;73;21031;-61
2021/12/22 05:45:31;;;;;;;1.20;0.90;;;;;;;-1.64;55.70;101971.56;1924545;74;21034;-58
2021/12/22 05:48:00;;;;;;;1.07;0.95;;;;;;;-1.25;54.29;101967.12;1917821;75;21078;-60
2021/12/22 05:50:29;;;;;;;1.10;0.82;;;;;;;-0.91;53.63;101974.54;1917682;75;21011;-59
2021/12/22 05:52:57;;;;;;;1.85;1.10;;;;;;;-0.60;52.86;101979.27;1917822;74;21031;-59
2021/12/22 05:55:26;;;;;;;1.27;1.12;;;;;;;0.13;52.21;101985.83;1916606;75;21092;-60
2021/12/22 05:57:55;;;;;;;1.90;1.02;;;;;;;0.13;52.21;101902.95;1915566;75;21047;-61
2021/12/22 06:00:23;;;;;;;2.95;0.85;;;;;;;0.62;51.61;101986.95;1915702;75;21046;-61
2021/12/22 06:02:52;;;;;;;1.77;0.95;;;;;;;1.18;51.06;101995.89;1915636;73;21559;-59
2021/12/22 06:05:21;;;;;;;2.58;0.93;;;;;;;1.74;51.34;102003.88;1909420;75;21062;-58
2021/12/22 06:07:49;;;;;;;1.95;1.00;;;;;;;2.38;51.18;102006.66;1906826;75;21486;-59
2021/12/22 06:10:18;;;;;;;3.05;1.10;;;;;;;2.84;50.66;102009.91;1906747;75;21116;-59
2021/12/22 06:12:47;;;;;;;2.30;1.02;;;;;;;3.25;50.09;102015.18;1906766;75;21575;-59
2021/12/22 06:15:16;;;;;;;2.90;1.55;;;;;;;3.64;49.36;102015.16;1868067;75;21494;-59
2021/12/22 06:17:47;;;;;;;3.02;1.00;;;;;;;4.05;48.74;102006.84;1860521;77;21599;-60
2021/12/22 06:20:15;;;;;;;9.50;1.50;;;;;;;4.28;47.23;102018.77;1860621;77;21071;-60
2021/12/22 06:22:44;;;;;;;2.45;1.10;;;;;;;4.67;47.37;102021.61;1860544;77;21498;-60
2021/12/22 06:25:13;;;;;;;1.47;1.10;;;;;;;4.96;46.51;102018.75;1860582;77;21129;-60
2021/12/22 06:27:41;;;;;;;5.25;1.80;;;;;;;5.23;46.49;102029.72;1860618;77;21546;-59
2021/12/22 06:30:11;;;;;;;2.33;1.22;;;;;;;5.32;45.15;102030.19;1860519;77;21164;-61
2021/12/22 06:32:39;;;;;;;2.45;0.98;;;;;;;5.75;45.43;102028.12;1882330;76;21032;-59
2021/12/22 06:35:09;;;;;;;4.95;1.57;;;;;;;6.15;45.22;102025.58;1944347;74;21050;-60
2021/12/22 06:37:38;;;;;;;2.45;1.35;;;;;;;6.42;44.47;102027.31;1944272;74;20994;-59
2021/12/22 06:40:08;;;;;;;3.75;1.25;;;;;;;6.73;44.25;102026.81;1944387;74;21030;-59
2021/12/22 06:42:38;;;;;;;1.07;0.60;;;;;;;6.98;43.78;102031.11;1944361;73;21026;-60
2021/12/22 06:45:10;;;;;;;4.62;1.52;;;;;;;7.33;42.79;102038.37;1944190;74;21070;-61
2021/12/22 06:47:38;;;;;;;2.70;1.60;;;;;;;7.45;41.90;102033.94;1944389;74;21095;-59
2021/12/22 06:50:09;;;;;;;2.15;0.98;;;;;;;7.56;41.28;102045.23;1944296;73;21499;-59
2021/12/22 06:52:38;;;;;;;1.52;0.90;;;;;;;7.85;41.15;102042.44;1944457;74;20998;-59
2021/12/22 06:55:07;;;;;;;1.37;1.00;;;;;;;8.13;40.80;102026.48;1942856;73;21127;-58
2021/12/22 06:57:36;;;;;;;2.27;1.35;;;;;;;8.06;40.00;102049.30;1959411;73;21081;-58
2021/12/22 07:00:07;;;;;;;2.55;1.17;;;;;;;8.01;40.48;102043.66;1963512;73;21030;-60
2021/12/22 07:02:37;;;;;;;1.98;0.90;;;;;;;8.45;40.17;102049.88;1963515;73;20994;-64
2021/12/22 07:05:10;;;;;;;1.47;1.00;;;;;;;8.36;39.07;102051.23;1959257;73;21057;-60
2021/12/22 07:07:40;;;;;;;2.98;0.90;;;;;;;6.90;40.19;102052.95;1945705;73;21026;-59
2021/12/22 07:10:11;;;;;;;1.17;0.98;;;;;;;4.96;40.82;102056.59;1940768;74;21019;-60
2021/12/22 07:12:50;;;;;;;2.12;0.93;;;;;;;3.52;42.43;102065.81;1940658;74;21046;-61
2021/12/22 07:15:17;;;;;;;2.75;1.10;;;;;;;2.55;43.76;102071.04;1966293;73;21036;-61
2021/12/22 07:17:48;;;;;;;5.20;1.05;;;;;;;2.02;44.31;102073.19;1952943;72;21077;-60
2021/12/22 07:20:17;;;;;;;1.95;1.02;;;;;;;3.28;44.07;102072.47;1938974;74;21023;-63
2021/12/22 07:22:46;;;;;;;3.37;1.05;;;;;;;4.89;41.80;102071.78;1939026;73;21007;-60
2021/12/22 07:25:18;;;;;;;1.35;0.98;;;;;;;6.17;40.12;102087.46;1949007;73;21526;-62
2021/12/22 07:27:47;;;;;;;2.02;1.15;;;;;;;7.16;39.04;102087.36;1952531;73;21023;-64
2021/12/22 07:30:16;;;;;;;1.72;1.17;;;;;;;7.59;37.95;102083.23;1948895;73;21099;-66
2021/12/22 07:32:45;;;;;;;1.50;0.88;;;;;;;8.18;37.16;102084.19;1945523;73;21470;-63
2021/12/22 07:35:31;;;;;;;1.47;0.70;;;;;;;8.80;36.35;102092.44;1939308;74;21126;-64
2021/12/22 07:38:32;;;;;;;1.87;0.75;;;;;;;9.24;34.46;102078.80;1939083;74;21043;-61
2021/12/22 07:41:03;;;;;;;3.08;1.42;;;;;;;8.71;34.45;102101.27;1939066;74;21093;-64
2021/12/22 07:43:32;;;;;;;1.95;1.12;;;;;;;8.20;35.54;102106.89;1939990;73;21549;-62
2021/12/22 07:46:01;;;;;;;2.70;0.90;;;;;;;8.39;35.35;102086.65;1939026;74;21071;-61
2021/12/22 07:48:30;;;;;;;2.67;1.30;;;;;;;8.81;34.79;102096.79;1939106;74;21493;-61
2021/12/22 07:50:59;;;;;;;2.35;1.22;;;;;;;8.43;35.46;102098.89;1940327;73;21030;-61
2021/12/22 07:53:28;;;;;;;3.25;1.15;;;;;;;7.17;36.25;102106.56;1940713;74;21500;-61
2021/12/22 07:55:57;;;;;;;1.12;0.90;;;;;;;6.45;37.16;102112.32;1940628;74;21815;-62
2021/12/22 07:58:27;;;;;;;1.72;1.00;;;;;;;6.94;36.94;102108.36;1940723;73;21465;-61
2021/12/22 08:00:57;;;;;;;1.98;0.90;;;;;;;7.79;34.59;102121.16;1946896;73;21010;-62
2021/12/22 08:03:26;;;;;;;2.47;1.20;;;;;;;7.58;35.46;102113.38;1952844;73;21477;-61
2021/12/22 08:05:55;;;;;;;4.78;1.67;;;;;;;7.90;35.31;102119.34;1953042;73;21339;-61
2021/12/22 08:08:24;;;;;;;4.10;1.10;;;;;;;6.91;35.45;102115.34;1953250;73;21084;-62
2021/12/22 08:10:52;;;;;;;3.02;1.30;;;;;;;6.05;36.67;102116.64;1953433;73;21034;-61
2021/12/22 08:13:23;;;;;;;3.52;1.07;;;;;;;5.97;37.04;102122.73;1925028;73;21106;-66
2021/12/22 08:15:51;;;;;;;2.72;1.15;;;;;;;7.46;35.76;102106.45;1935007;73;21025;-65
2021/12/22 08:18:20;;;;;;;3.62;1.05;;;;;;;8.45;34.93;102113.32;1928564;74;21094;-61
2021/12/22 08:20:49;;;;;;;4.20;1.50;;;;;;;9.32;34.17;102109.39;1907221;74;21529;-62
2021/12/22 08:23:18;;;;;;;4.37;1.30;;;;;;;10.10;33.12;102110.09;1940998;74;21086;-63
2021/12/22 08:25:48;;;;;;;5.15;1.10;;;;;;;10.69;32.33;102100.36;1940927;74;21556;-65
2021/12/22 08:28:17;;;;;;;3.08;1.37;;;;;;;11.11;31.41;102097.82;1940889;74;21031;-61
2021/12/22 08:30:46;;;;;;;5.33;1.10;;;;;;;9.90;32.29;102098.08;1940890;74;21519;-63
2021/12/22 08:33:26;;;;;;;2.08;0.90;;;;;;;8.79;32.71;102107.30;1938383;74;21467;-63
2021/12/22 08:38:51;;;;;;;3.65;1.00;;;;;;;7.72;34.27;102100.63;1924968;74;21140;-65
2021/12/22 08:41:29;;;;;;;0.62;0.55;;;;;;;8.49;33.24;102091.41;1925072;74;21018;-68
2021/12/22 08:44:00;;;;;;;4.50;1.02;;;;;;;8.07;33.69;102098.69;1924939;74;21080;-61
2021/12/22 08:46:31;;;;;;;3.17;1.10;;;;;;;7.81;33.95;102093.62;1925451;74;20994;-63
2021/12/22 08:49:01;;;;;;;4.28;0.95;;;;;;;7.14;34.14;102094.35;1940847;74;21056;-62
2021/12/22 08:51:30;;;;;;;2.22;0.95;;;;;;;6.53;34.49;102098.82;1941036;74;21089;-61
2021/12/22 08:54:00;;;;;;;2.10;1.00;;;;;;;5.85;34.29;102109.62;1940785;74;21053;-58
2021/12/22 08:56:30;;;;;;;1.05;0.68;;;;;;;5.02;35.70;102116.66;1940923;74;21158;-60
2021/12/22 08:58:59;;;;;;;3.27;1.00;;;;;;;5.51;35.08;102109.93;1934260;74;21569;-70
2021/12/22 09:01:29;;;;;;;1.42;0.65;;;;;;;5.13;35.19;102106.73;1914358;74;21025;-63
2021/12/22 09:03:58;;;;;;;2.10;0.85;;;;;;;4.74;35.71;102109.50;1940786;74;21487;-65
2021/12/22 09:06:27;;;;;;;1.22;0.93;;;;;;;5.68;35.30;102100.43;1911484;74;21148;-66
2021/12/22 09:08:56;;;;;;;5.15;1.20;;;;;;;7.31;33.66;102087.29;1916995;75;21090;-63
2021/12/22 09:11:26;;;;;;;2.83;1.10;;;;;;;8.99;31.57;102097.05;1946573;73;21112;-67
2021/12/22 09:13:55;;;;;;;2.22;1.10;;;;;;;9.36;31.26;102092.23;1958072;73;21529;-66
2021/12/22 09:16:23;;;;;;;0.98;0.80;;;;;;;9.63;31.22;102094.95;1972085;73;21510;-69
2021/12/22 09:18:52;;;;;;;1.60;0.70;;;;;;;10.69;30.73;102100.36;1916978;75;21182;-66
2021/12/22 09:21:21;;;;;;;5.40;1.17;;;;;;;11.66;29.62;102101.55;1916929;75;21078;-64
2021/12/22 09:23:51;;;;;;;2.22;0.72;;;;;;;10.87;30.38;102096.53;1916963;75;21473;-67
2021/12/22 09:26:19;;;;;;;1.57;1.05;;;;;;;8.28;32.30;102106.41;1916997;75;21026;-64
2021/12/22 09:28:49;;;;;;;6.47;0.80;;;;;;;6.23;32.97;102100.11;1916994;74;20995;-68
2021/12/22 09:31:17;;;;;;;3.92;0.90;;;;;;;4.76;34.94;102114.33;1917009;75;21022;-63
2021/12/22 09:33:46;;;;;;;1.80;0.65;;;;;;;3.55;35.52;102117.94;1916913;74;21030;-61
2021/12/22 09:36:16;;;;;;;2.12;0.90;;;;;;;2.79;36.84;102117.34;1917056;75;21031;-63
2021/12/22 09:38:45;;;;;;;1.40;0.90;;;;;;;2.35;37.74;102119.67;1917061;74;21469;-69
2021/12/22 09:41:14;;;;;;;2.15;1.10;;;;;;;1.89;38.33;102121.02;1916978;74;21030;-63
2021/12/22 09:43:43;;;;;;;2.40;1.00;;;;;;;1.59;38.77;102121.31;1917071;74;21481;-65
2021/12/22 09:46:16;;;;;;;2.40;0.93;;;;;;;1.53;38.94;102127.65;1916921;74;21473;-65
2021/12/22 09:49:18;;;;;;;1.65;0.82;;;;;;;2.76;38.20;102114.69;1916969;74;21082;-63
2021/12/22 09:54:04;;;;;;;5.80;1.07;;;;;;;4.95;35.35;102097.05;1917066;75;21529;-66
2021/12/22 09:56:33;;;;;;;2.02;0.90;;;;;;;5.05;35.12;102097.96;1917115;75;21007;-60
2021/12/22 09:59:02;;;;;;;2.05;0.93;;;;;;;5.94;34.43;102095.70;1926247;73;21074;-60
2021/12/22 10:01:31;;;;;;;2.33;1.10;;;;;;;6.57;33.51;102087.47;1922958;73;21026;-60
2021/12/22 10:04:01;;;;;;;3.33;1.20;;;;;;;6.84;32.80;102097.48;1936707;73;21067;-60
2021/12/22 10:06:30;;;;;;;2.20;0.85;;;;;;;7.30;32.70;102105.63;1917159;74;21031;-61
2021/12/22 10:09:04;;;;;;;1.70;1.05;;;;;;;7.92;31.94;102107.08;1935026;73;21074;-62
2021/12/22 10:11:35;;;;;;;2.70;1.07;;;;;;;8.56;31.39;102097.03;1959744;73;21065;-72
2021/12/22 10:14:06;;;;;;;1.15;0.82;;;;;;;9.21;30.42;102086.72;1960644;73;21107;-70
2021/12/22 10:16:38;;;;;;;1.05;0.75;;;;;;;9.66;30.32;102097.55;1957113;73;21566;-69
2021/12/22 10:19:11;;;;;;;1.52;0.80;;;;;;;9.57;30.52;102098.99;1959025;73;21528;-70
2021/12/22 10:21:54;;;;;;;2.30;1.13;;;;;;;8.18;31.63;102107.80;1959504;73;20999;-74
2021/12/22 10:24:26;;;;;;;2.08;0.95;;;;;;;7.46;32.23;102107.32;1959484;71;21336;-71
2021/12/22 10:27:06;;;;;;;2.67;1.05;;;;;;;7.03;33.35;102113.16;1952305;72;21074;-69
2021/12/22 10:29:36;;;;;;;0.78;0.70;;;;;;;7.13;33.52;102108.31;1952921;72;21113;-61
2021/12/22 10:32:11;;;;;;;1.50;1.00;;;;;;;7.84;32.00;102113.24;1955975;72;21031;-64
2021/12/22 10:35:02;;;;;;;2.37;1.00;;;;;;;8.84;31.35;102108.14;1943177;72;21093;-62
2021/12/22 10:37:39;;;;;;;3.52;0.90;;;;;;;9.49;30.49;102108.72;1956129;73;21462;-62
2021/12/22 10:40:35;;;;;;;3.87;1.35;;;;;;;10.16;29.90;102102.98;1961055;73;21481;-63
2021/12/22 10:43:05;;;;;;;2.47;0.90;;;;;;;10.38;29.55;102095.64;1942455;73;21524;-63
2021/12/22 10:45:35;;;;;;;2.37;1.00;;;;;;;10.43;29.58;102091.14;1945875;73;21082;-63
2021/12/22 10:50:59;;;;;;;2.55;0.93;;;;;;;10.43;29.45;102088.96;1939425;74;21078;-60
2021/12/22 10:53:28;;;;;;;1.72;0.90;;;;;;;9.15;30.33;102088.11;1939105;74;21004;-60
2021/12/22 10:55:58;;;;;;;3.20;1.05;;;;;;;8.17;31.19;102095.55;1939305;74;21547;-64
2021/12/22 10:58:34;;;;;;;3.47;1.00;;;;;;;7.20;32.25;102099.56;1939312;74;21063;-67
2021/12/22 11:01:18;;;;;;;2.77;1.10;;;;;;;6.78;32.64;102093.55;1939516;74;21023;-66
2021/12/22 11:03:53;;;;;;;;;;;;;;;7.31;31.96;102096.46;1942192;74;21540;-65
2021/12/22 11:06:28;;;;;;;2.22;1.20;;;;;;;7.43;32.14;102099.49;1939171;74;20116;-65
2021/12/22 11:09:02;;;;;;;4.65;1.10;;;;;;;6.08;33.33;102106.20;1934332;74;21043;-66
2021/12/22 11:11:33;;;;;;;1.45;0.95;;;;;;;5.03;34.44;102105.38;1956075;73;21026;-67
2021/12/22 11:14:14;;;;;;;2.15;1.27;;;;;;;4.24;35.59;102110.84;1956272;73;21110;-71
2021/12/22 11:16:55;;;;;;;2.02;1.10;;;;;;;3.61;36.52;102114.09;1952553;73;21469;-68
2021/12/22 11:19:26;;;;;;;5.75;1.22;;;;;;;3.00;37.18;102107.23;1963455;72;21353;-67
2021/12/22 11:22:19;;;;;;;6.75;1.40;;;;;;;2.70;37.83;102111.14;1955835;72;20987;-68
2021/12/22 11:24:50;;;;;;;1.45;1.10;;;;;;;2.63;37.87;102110.59;1975659;72;21105;-63
2021/12/22 11:27:24;;;;;;;3.67;0.85;;;;;;;2.60;37.70;102105.36;1945358;72;21082;-64
2021/12/22 11:29:56;;;;;;;2.95;1.05;;;;;;;2.39;38.04;102111.50;1940725;74;21491;-64
2021/12/22 11:32:27;;;;;;;1.20;1.00;;;;;;;2.10;38.36;102104.06;1940725;74;21043;-66
2021/12/22 11:34:59;;;;;;;1.55;0.98;;;;;;;1.88;38.70;102102.40;1940557;74;21103;-63
2021/12/22 11:37:28;;;;;;;2.70;1.27;;;;;;;1.93;38.33;102107.23;1941458;72;20988;-61
2021/12/22 11:39:58;;;;;;;6.40;1.55;;;;;;;2.03;38.18;102112.59;1975605;72;21069;-65
2021/12/22 11:42:31;;;;;;;3.80;0.90;;;;;;;1.84;38.38;102112.69;1975453;72;21475;-65
2021/12/22 11:45:02;;;;;;;4.15;1.05;;;;;;;1.63;38.96;102110.12;1975473;72;21101;-63
2021/12/22 11:47:32;;;;;;;5.72;1.20;;;;;;;1.51;39.29;102108.58;1975363;72;21494;-65
2021/12/22 11:50:03;;;;;;;4.87;1.30;;;;;;;1.50;39.53;102111.61;1975615;72;21039;-61
2021/12/22 11:52:46;;;;;;;2.00;0.88;;;;;;;1.56;39.34;102113.88;1975492;72;21536;-60
2021/12/22 11:55:23;;;;;;;1.45;0.82;;;;;;;1.59;39.35;102110.05;1974363;72;21114;-60
2021/12/22 11:58:13;;;;;;;4.20;1.07;;;;;;;1.86;39.06;102123.58;1975015;72;21557;-62
2021/12/22 12:00:44;;;;;;;5.00;1.67;;;;;;;2.77;38.04;102113.42;1940568;74;21066;-63
2021/12/22 12:03:36;;;;;;;1.12;1.02;;;;;;;3.83;36.51;102112.17;1937941;74;21031;-62